Airfield :
LOGIN :

Register | Disclaimer

   EN    FR    IT 

 










Legend :    VFR   Marginal VFR   IFR   Intensive IFR   Very Intensive IFR
Visi :
Ceiling :
>= 8 km
>= 3000ft
5 to 8 km
1000 to 3000 ft
1500m to 5 km
500 to 1000 ft
800 to 1500m
200 to 500 ft
< 800m
< 200 ft
Symbols :   Thunderstorms  Fog  Heavy snow  Heavy precipitations  Wind > 20 kt
SIGMETs :     Misc.  Thunderstorms  Icing  Turbulence  Mountain Waves  Volcanic Ashes







- Airport Elevation : 160 ft
- IATA code : LRT
- Download approach charts


LFRH - Lorient Lann Bihoue

CURRENT METAR :
  • 222000Z AUTO 23005KT 180V300 CAVOK 20/17 Q1018 NOSIG

EXPIRED METARs :
  • 221930Z AUTO 27007KT CAVOK 21/17 Q1018 NOSIG
  • 221900Z AUTO 26006KT CAVOK 22/17 Q1018 NOSIG
  • 221830Z AUTO 27009KT CAVOK 22/17 Q1017 NOSIG
  • 221800Z AUTO 27009KT CAVOK 22/19 Q1017 NOSIG
  • 221730Z AUTO 27010KT 230V290 CAVOK 22/18 Q1017 NOSIG

TAF TAF LFRH
Valid from the 22 at 18:00 until the 23 at 18:00 UTC


221700Z 2218/2318 26010KT CAVOK
BECMG 2222/2224 04005KT NSC
PROB30
TEMPO 2303/2306 4000 BR
BECMG 2310/2312 20010KT CAVOK
No reported NOTAMs for that airfield.



MET'MAP, your aeronautical weather chart ! - Copyright ORBIFLY December 2007 - Disclaimer

ORBIFLY MET'MAP TEAM :

Programming & Development : Alexandra Zaïnal
Concept & Development : Baudouin d'Aumeries
Co-Development & Prog : Marc-Olivier Méhu
Technical & hardware support : Manuel Goepfert

Contact : metmap@orbifly.com




SOURCES & CREDITS :

   NOAA